sensor_id;sensor_type;location;lat;lon;timestamp;temperature;humidity
14172;DHT22;7165;52.388;4.928;2022-10-16T00:00:08;14.40;99.90
14172;DHT22;7165;52.388;4.928;2022-10-16T00:02:35;14.40;99.90
14172;DHT22;7165;52.388;4.928;2022-10-16T00:05:03;14.40;99.90
14172;DHT22;7165;52.388;4.928;2022-10-16T00:07:30;14.40;99.90
14172;DHT22;7165;52.388;4.928;2022-10-16T00:09:57;14.40;99.90
14172;DHT22;7165;52.388;4.928;2022-10-16T00:12:23;14.40;99.90
14172;DHT22;7165;52.388;4.928;2022-10-16T00:14:50;14.40;99.90
14172;DHT22;7165;52.388;4.928;2022-10-16T00:17:17;14.40;99.90
14172;DHT22;7165;52.388;4.928;2022-10-16T00:19:44;14.40;99.90
14172;DHT22;7165;52.388;4.928;2022-10-16T00:22:11;14.40;99.90
14172;DHT22;7165;52.388;4.928;2022-10-16T00:24:38;14.40;99.90
14172;DHT22;7165;52.388;4.928;2022-10-16T00:27:05;14.40;99.90
14172;DHT22;7165;52.388;4.928;2022-10-16T00:29:31;14.40;99.90
14172;DHT22;7165;52.388;4.928;2022-10-16T00:31:58;14.40;99.90
14172;DHT22;7165;52.388;4.928;2022-10-16T00:34:25;14.30;99.90
14172;DHT22;7165;52.388;4.928;2022-10-16T00:36:51;14.40;99.90
14172;DHT22;7165;52.388;4.928;2022-10-16T00:39:19;14.30;99.90
14172;DHT22;7165;52.388;4.928;2022-10-16T00:41:46;14.40;99.90
14172;DHT22;7165;52.388;4.928;2022-10-16T00:44:42;14.40;99.90
14172;DHT22;7165;52.388;4.928;2022-10-16T00:47:10;14.40;99.90
14172;DHT22;7165;52.388;4.928;2022-10-16T00:49:38;14.40;99.90
14172;DHT22;7165;52.388;4.928;2022-10-16T00:52:05;14.40;99.90
14172;DHT22;7165;52.388;4.928;2022-10-16T00:54:33;14.40;99.90
14172;DHT22;7165;52.388;4.928;2022-10-16T00:57:03;14.40;99.90
14172;DHT22;7165;52.388;4.928;2022-10-16T00:59:33;14.30;99.90
14172;DHT22;7165;52.388;4.928;2022-10-16T01:02:00;14.30;99.90
14172;DHT22;7165;52.388;4.928;2022-10-16T01:04:30;14.40;99.90
14172;DHT22;7165;52.388;4.928;2022-10-16T01:07:06;14.30;99.90
14172;DHT22;7165;52.388;4.928;2022-10-16T01:09:47;14.30;99.90
14172;DHT22;7165;52.388;4.928;2022-10-16T01:12:20;14.30;99.90
14172;DHT22;7165;52.388;4.928;2022-10-16T01:14:54;14.30;99.90
14172;DHT22;7165;52.388;4.928;2022-10-16T01:17:28;14.30;99.90
14172;DHT22;7165;52.388;4.928;2022-10-16T01:20:07;14.30;99.90
14172;DHT22;7165;52.388;4.928;2022-10-16T01:22:43;14.20;99.90
14172;DHT22;7165;52.388;4.928;2022-10-16T01:25:21;14.20;99.90
14172;DHT22;7165;52.388;4.928;2022-10-16T01:27:51;14.20;99.90
14172;DHT22;7165;52.388;4.928;2022-10-16T01:30:21;14.20;99.90
14172;DHT22;7165;52.388;4.928;2022-10-16T01:32:52;14.20;99.90
14172;DHT22;7165;52.388;4.928;2022-10-16T01:35:23;14.20;99.90
14172;DHT22;7165;52.388;4.928;2022-10-16T01:37:55;14.10;99.90
14172;DHT22;7165;52.388;4.928;2022-10-16T01:40:26;14.10;99.90
14172;DHT22;7165;52.388;4.928;2022-10-16T01:43:00;14.10;99.90
14172;DHT22;7165;52.388;4.928;2022-10-16T01:45:29;14.10;99.90
14172;DHT22;7165;52.388;4.928;2022-10-16T01:48:00;14.10;99.90
14172;DHT22;7165;52.388;4.928;2022-10-16T01:50:31;14.10;99.90
14172;DHT22;7165;52.388;4.928;2022-10-16T01:52:58;14.10;99.90
14172;DHT22;7165;52.388;4.928;2022-10-16T01:55:29;14.10;99.90
14172;DHT22;7165;52.388;4.928;2022-10-16T01:57:59;14.20;99.90
14172;DHT22;7165;52.388;4.928;2022-10-16T02:00:29;14.20;99.90
14172;DHT22;7165;52.388;4.928;2022-10-16T02:02:57;14.10;99.90
14172;DHT22;7165;52.388;4.928;2022-10-16T02:05:31;14.10;99.90
14172;DHT22;7165;52.388;4.928;2022-10-16T02:07:58;14.10;99.90
14172;DHT22;7165;52.388;4.928;2022-10-16T02:10:25;14.20;99.90
14172;DHT22;7165;52.388;4.928;2022-10-16T02:12:59;14.20;99.90
14172;DHT22;7165;52.388;4.928;2022-10-16T02:15:27;14.20;99.90
14172;DHT22;7165;52.388;4.928;2022-10-16T02:17:53;14.20;99.90
14172;DHT22;7165;52.388;4.928;2022-10-16T02:20:25;14.20;99.90
14172;DHT22;7165;52.388;4.928;2022-10-16T02:22:54;14.20;99.90
14172;DHT22;7165;52.388;4.928;2022-10-16T02:25:24;14.20;99.90
14172;DHT22;7165;52.388;4.928;2022-10-16T02:27:56;14.20;99.90
14172;DHT22;7165;52.388;4.928;2022-10-16T02:30:36;14.10;99.90
14172;DHT22;7165;52.388;4.928;2022-10-16T02:33:07;14.10;99.90
14172;DHT22;7165;52.388;4.928;2022-10-16T02:35:35;14.10;99.90
14172;DHT22;7165;52.388;4.928;2022-10-16T02:38:03;14.10;99.90
14172;DHT22;7165;52.388;4.928;2022-10-16T02:40:30;14.10;99.90
14172;DHT22;7165;52.388;4.928;2022-10-16T02:42:57;14.00;99.90
14172;DHT22;7165;52.388;4.928;2022-10-16T02:45:25;14.10;99.90
14172;DHT22;7165;52.388;4.928;2022-10-16T02:47:52;14.00;99.90
14172;DHT22;7165;52.388;4.928;2022-10-16T02:50:19;14.00;99.90
14172;DHT22;7165;52.388;4.928;2022-10-16T02:52:45;14.00;99.90
14172;DHT22;7165;52.388;4.928;2022-10-16T02:55:12;13.90;99.90
14172;DHT22;7165;52.388;4.928;2022-10-16T02:57:39;13.90;99.90
14172;DHT22;7165;52.388;4.928;2022-10-16T03:00:07;13.90;99.90
14172;DHT22;7165;52.388;4.928;2022-10-16T03:02:35;13.80;99.90
14172;DHT22;7165;52.388;4.928;2022-10-16T03:05:02;13.80;99.90
14172;DHT22;7165;52.388;4.928;2022-10-16T03:07:29;13.70;99.90
14172;DHT22;7165;52.388;4.928;2022-10-16T03:09:56;13.80;99.90
14172;DHT22;7165;52.388;4.928;2022-10-16T03:12:25;13.70;99.90
14172;DHT22;7165;52.388;4.928;2022-10-16T03:14:52;13.70;99.90
14172;DHT22;7165;52.388;4.928;2022-10-16T03:17:18;13.70;99.90
14172;DHT22;7165;52.388;4.928;2022-10-16T03:19:46;13.70;99.90
14172;DHT22;7165;52.388;4.928;2022-10-16T03:22:13;13.70;99.90
14172;DHT22;7165;52.388;4.928;2022-10-16T03:24:40;13.60;99.90
14172;DHT22;7165;52.388;4.928;2022-10-16T03:27:06;13.60;99.90
14172;DHT22;7165;52.388;4.928;2022-10-16T03:29:33;13.60;99.90
14172;DHT22;7165;52.388;4.928;2022-10-16T03:32:00;13.60;99.90
14172;DHT22;7165;52.388;4.928;2022-10-16T03:34:27;13.50;99.90
14172;DHT22;7165;52.388;4.928;2022-10-16T03:36:55;13.50;99.90
14172;DHT22;7165;52.388;4.928;2022-10-16T03:39:22;13.50;99.90
14172;DHT22;7165;52.388;4.928;2022-10-16T03:41:49;13.50;99.90
14172;DHT22;7165;52.388;4.928;2022-10-16T03:44:15;13.50;99.90
14172;DHT22;7165;52.388;4.928;2022-10-16T03:46:42;13.50;99.90
14172;DHT22;7165;52.388;4.928;2022-10-16T03:49:08;13.50;99.90
14172;DHT22;7165;52.388;4.928;2022-10-16T03:51:35;13.50;99.90
14172;DHT22;7165;52.388;4.928;2022-10-16T03:54:04;13.50;99.90
14172;DHT22;7165;52.388;4.928;2022-10-16T03:56:30;13.50;99.90
14172;DHT22;7165;52.388;4.928;2022-10-16T03:58:57;13.40;99.90
14172;DHT22;7165;52.388;4.928;2022-10-16T04:01:24;13.40;99.90
14172;DHT22;7165;52.388;4.928;2022-10-16T04:03:50;13.40;99.90
14172;DHT22;7165;52.388;4.928;2022-10-16T04:06:17;13.40;99.90
14172;DHT22;7165;52.388;4.928;2022-10-16T04:08:44;13.40;99.90
14172;DHT22;7165;52.388;4.928;2022-10-16T04:11:12;13.40;99.90
14172;DHT22;7165;52.388;4.928;2022-10-16T04:13:39;13.40;99.90
14172;DHT22;7165;52.388;4.928;2022-10-16T04:16:07;13.50;99.90
14172;DHT22;7165;52.388;4.928;2022-10-16T04:18:33;13.50;99.90
14172;DHT22;7165;52.388;4.928;2022-10-16T04:21:02;13.50;99.90
14172;DHT22;7165;52.388;4.928;2022-10-16T04:23:29;13.50;99.90
14172;DHT22;7165;52.388;4.928;2022-10-16T04:25:56;13.50;99.90
14172;DHT22;7165;52.388;4.928;2022-10-16T04:28:24;13.50;99.90
14172;DHT22;7165;52.388;4.928;2022-10-16T04:30:50;13.50;99.90
14172;DHT22;7165;52.388;4.928;2022-10-16T04:33:17;13.50;99.90
14172;DHT22;7165;52.388;4.928;2022-10-16T04:35:44;13.50;99.90
14172;DHT22;7165;52.388;4.928;2022-10-16T04:38:10;13.50;99.90
14172;DHT22;7165;52.388;4.928;2022-10-16T04:40:37;13.60;99.90
14172;DHT22;7165;52.388;4.928;2022-10-16T04:43:04;13.60;99.90
14172;DHT22;7165;52.388;4.928;2022-10-16T04:45:32;13.60;99.90
14172;DHT22;7165;52.388;4.928;2022-10-16T04:47:59;13.60;99.90
14172;DHT22;7165;52.388;4.928;2022-10-16T04:50:26;13.70;99.90
14172;DHT22;7165;52.388;4.928;2022-10-16T04:52:53;13.70;99.90
14172;DHT22;7165;52.388;4.928;2022-10-16T04:55:19;13.70;99.90
14172;DHT22;7165;52.388;4.928;2022-10-16T04:57:46;13.70;99.90
14172;DHT22;7165;52.388;4.928;2022-10-16T05:00:13;13.70;99.90
14172;DHT22;7165;52.388;4.928;2022-10-16T05:02:41;13.70;99.90
14172;DHT22;7165;52.388;4.928;2022-10-16T05:05:08;13.80;99.90
14172;DHT22;7165;52.388;4.928;2022-10-16T05:07:34;13.80;99.90
14172;DHT22;7165;52.388;4.928;2022-10-16T05:10:01;13.80;99.90
14172;DHT22;7165;52.388;4.928;2022-10-16T05:12:28;13.80;99.90
14172;DHT22;7165;52.388;4.928;2022-10-16T05:14:54;13.80;99.90
14172;DHT22;7165;52.388;4.928;2022-10-16T05:17:23;13.80;99.90
14172;DHT22;7165;52.388;4.928;2022-10-16T05:19:51;13.70;99.90
14172;DHT22;7165;52.388;4.928;2022-10-16T05:22:18;13.70;99.90
14172;DHT22;7165;52.388;4.928;2022-10-16T05:24:45;13.70;99.90
14172;DHT22;7165;52.388;4.928;2022-10-16T05:27:12;13.70;99.90
14172;DHT22;7165;52.388;4.928;2022-10-16T05:29:44;13.70;99.90
14172;DHT22;7165;52.388;4.928;2022-10-16T05:32:11;13.70;99.90
14172;DHT22;7165;52.388;4.928;2022-10-16T05:34:37;13.60;99.90
14172;DHT22;7165;52.388;4.928;2022-10-16T05:37:05;13.60;99.90
14172;DHT22;7165;52.388;4.928;2022-10-16T05:39:32;13.60;99.90
14172;DHT22;7165;52.388;4.928;2022-10-16T05:41:59;13.60;99.90
14172;DHT22;7165;52.388;4.928;2022-10-16T05:44:25;13.60;99.90
14172;DHT22;7165;52.388;4.928;2022-10-16T05:46:52;13.60;99.90
14172;DHT22;7165;52.388;4.928;2022-10-16T05:49:19;13.60;99.90
14172;DHT22;7165;52.388;4.928;2022-10-16T05:51:45;13.60;99.90
14172;DHT22;7165;52.388;4.928;2022-10-16T05:54:14;13.60;99.90
14172;DHT22;7165;52.388;4.928;2022-10-16T05:56:40;13.60;99.90
14172;DHT22;7165;52.388;4.928;2022-10-16T05:59:07;13.60;99.90
14172;DHT22;7165;52.388;4.928;2022-10-16T06:01:34;13.60;99.90
14172;DHT22;7165;52.388;4.928;2022-10-16T06:04:01;13.60;99.90
14172;DHT22;7165;52.388;4.928;2022-10-16T06:06:28;13.60;99.90
14172;DHT22;7165;52.388;4.928;2022-10-16T06:08:56;13.60;99.90
14172;DHT22;7165;52.388;4.928;2022-10-16T06:11:28;13.60;99.90
14172;DHT22;7165;52.388;4.928;2022-10-16T06:13:56;13.60;99.90
14172;DHT22;7165;52.388;4.928;2022-10-16T06:16:23;13.60;99.90
14172;DHT22;7165;52.388;4.928;2022-10-16T06:18:50;13.60;99.90
14172;DHT22;7165;52.388;4.928;2022-10-16T06:21:19;13.60;99.90
14172;DHT22;7165;52.388;4.928;2022-10-16T06:23:46;13.60;99.90
14172;DHT22;7165;52.388;4.928;2022-10-16T06:26:14;13.60;99.90
14172;DHT22;7165;52.388;4.928;2022-10-16T06:28:42;13.60;99.90
14172;DHT22;7165;52.388;4.928;2022-10-16T06:31:09;13.60;99.90
14172;DHT22;7165;52.388;4.928;2022-10-16T06:33:36;13.60;99.90
14172;DHT22;7165;52.388;4.928;2022-10-16T06:36:03;13.60;99.90
14172;DHT22;7165;52.388;4.928;2022-10-16T06:38:31;13.70;99.90
14172;DHT22;7165;52.388;4.928;2022-10-16T06:40:58;13.70;99.90
14172;DHT22;7165;52.388;4.928;2022-10-16T06:43:25;13.80;99.90
14172;DHT22;7165;52.388;4.928;2022-10-16T06:45:53;13.80;99.90
14172;DHT22;7165;52.388;4.928;2022-10-16T06:48:21;13.80;99.90
14172;DHT22;7165;52.388;4.928;2022-10-16T06:50:58;13.80;99.90
14172;DHT22;7165;52.388;4.928;2022-10-16T06:53:27;13.80;99.90
14172;DHT22;7165;52.388;4.928;2022-10-16T06:55:54;13.80;99.90
14172;DHT22;7165;52.388;4.928;2022-10-16T06:58:21;13.80;99.90
14172;DHT22;7165;52.388;4.928;2022-10-16T07:00:48;13.80;99.90
14172;DHT22;7165;52.388;4.928;2022-10-16T07:03:16;13.80;99.90
14172;DHT22;7165;52.388;4.928;2022-10-16T07:05:43;13.80;99.90
14172;DHT22;7165;52.388;4.928;2022-10-16T07:08:09;13.70;99.90
14172;DHT22;7165;52.388;4.928;2022-10-16T07:10:36;13.80;99.90
14172;DHT22;7165;52.388;4.928;2022-10-16T07:13:03;13.80;99.90
14172;DHT22;7165;52.388;4.928;2022-10-16T07:15:29;13.80;99.90
14172;DHT22;7165;52.388;4.928;2022-10-16T07:17:56;13.70;99.90
14172;DHT22;7165;52.388;4.928;2022-10-16T07:20:24;13.70;99.90
14172;DHT22;7165;52.388;4.928;2022-10-16T07:22:51;13.70;99.90
14172;DHT22;7165;52.388;4.928;2022-10-16T07:25:18;13.70;99.90
14172;DHT22;7165;52.388;4.928;2022-10-16T07:27:44;13.70;99.90
14172;DHT22;7165;52.388;4.928;2022-10-16T07:30:11;13.80;99.90
14172;DHT22;7165;52.388;4.928;2022-10-16T07:32:38;13.80;99.90
14172;DHT22;7165;52.388;4.928;2022-10-16T07:35:06;13.80;99.90
14172;DHT22;7165;52.388;4.928;2022-10-16T07:37:34;13.80;99.90
14172;DHT22;7165;52.388;4.928;2022-10-16T07:40:00;13.90;99.90
14172;DHT22;7165;52.388;4.928;2022-10-16T07:42:27;14.00;99.90
14172;DHT22;7165;52.388;4.928;2022-10-16T07:44:54;14.10;99.90
14172;DHT22;7165;52.388;4.928;2022-10-16T07:47:21;14.20;99.90
14172;DHT22;7165;52.388;4.928;2022-10-16T07:49:48;14.30;99.90
14172;DHT22;7165;52.388;4.928;2022-10-16T07:52:14;14.30;99.90
14172;DHT22;7165;52.388;4.928;2022-10-16T07:54:42;14.30;99.90
14172;DHT22;7165;52.388;4.928;2022-10-16T07:57:09;14.40;99.90
14172;DHT22;7165;52.388;4.928;2022-10-16T07:59:35;14.50;99.90
14172;DHT22;7165;52.388;4.928;2022-10-16T08:02:02;14.60;99.90
14172;DHT22;7165;52.388;4.928;2022-10-16T08:04:29;14.60;99.90
14172;DHT22;7165;52.388;4.928;2022-10-16T08:06:55;14.60;99.90
14172;DHT22;7165;52.388;4.928;2022-10-16T08:09:22;14.70;99.90
14172;DHT22;7165;52.388;4.928;2022-10-16T08:11:50;14.70;99.90
14172;DHT22;7165;52.388;4.928;2022-10-16T08:14:18;14.80;99.90
14172;DHT22;7165;52.388;4.928;2022-10-16T08:16:44;14.90;99.90
14172;DHT22;7165;52.388;4.928;2022-10-16T08:19:11;14.90;99.90
14172;DHT22;7165;52.388;4.928;2022-10-16T08:21:37;14.90;99.90
14172;DHT22;7165;52.388;4.928;2022-10-16T08:24:04;15.00;99.90
14172;DHT22;7165;52.388;4.928;2022-10-16T08:26:31;15.00;99.90
14172;DHT22;7165;52.388;4.928;2022-10-16T08:28:59;15.20;99.90
14172;DHT22;7165;52.388;4.928;2022-10-16T08:31:25;15.30;99.90
14172;DHT22;7165;52.388;4.928;2022-10-16T08:33:52;15.30;99.90
14172;DHT22;7165;52.388;4.928;2022-10-16T08:36:19;15.30;99.90
14172;DHT22;7165;52.388;4.928;2022-10-16T08:38:48;15.30;99.90
14172;DHT22;7165;52.388;4.928;2022-10-16T08:41:26;15.40;99.90
14172;DHT22;7165;52.388;4.928;2022-10-16T08:44:09;15.40;99.90
14172;DHT22;7165;52.388;4.928;2022-10-16T08:46:47;15.50;99.90
14172;DHT22;7165;52.388;4.928;2022-10-16T08:49:17;15.70;99.90
14172;DHT22;7165;52.388;4.928;2022-10-16T08:51:44;15.80;99.90
14172;DHT22;7165;52.388;4.928;2022-10-16T08:54:22;15.90;99.90
14172;DHT22;7165;52.388;4.928;2022-10-16T08:56:54;16.00;99.90
14172;DHT22;7165;52.388;4.928;2022-10-16T08:59:22;16.10;99.90
14172;DHT22;7165;52.388;4.928;2022-10-16T09:01:50;16.10;99.90
14172;DHT22;7165;52.388;4.928;2022-10-16T09:04:51;16.10;99.90
14172;DHT22;7165;52.388;4.928;2022-10-16T09:07:26;16.00;99.90
14172;DHT22;7165;52.388;4.928;2022-10-16T09:10:11;15.90;99.90
14172;DHT22;7165;52.388;4.928;2022-10-16T09:12:48;15.90;99.90
14172;DHT22;7165;52.388;4.928;2022-10-16T09:15:25;15.80;99.90
14172;DHT22;7165;52.388;4.928;2022-10-16T09:18:01;15.70;99.90
14172;DHT22;7165;52.388;4.928;2022-10-16T09:20:42;15.80;99.90
14172;DHT22;7165;52.388;4.928;2022-10-16T09:23:17;15.90;99.90
14172;DHT22;7165;52.388;4.928;2022-10-16T09:25:47;16.00;99.90
14172;DHT22;7165;52.388;4.928;2022-10-16T09:28:15;16.10;99.90
14172;DHT22;7165;52.388;4.928;2022-10-16T09:30:43;16.20;99.90
14172;DHT22;7165;52.388;4.928;2022-10-16T09:33:12;16.30;99.90
14172;DHT22;7165;52.388;4.928;2022-10-16T09:35:40;16.40;99.90
14172;DHT22;7165;52.388;4.928;2022-10-16T09:38:08;16.70;99.90
14172;DHT22;7165;52.388;4.928;2022-10-16T09:40:37;16.90;99.90
14172;DHT22;7165;52.388;4.928;2022-10-16T09:43:15;17.10;99.90
14172;DHT22;7165;52.388;4.928;2022-10-16T09:45:55;17.30;99.90
14172;DHT22;7165;52.388;4.928;2022-10-16T09:48:22;17.50;99.90
14172;DHT22;7165;52.388;4.928;2022-10-16T09:50:56;17.60;99.90
14172;DHT22;7165;52.388;4.928;2022-10-16T09:53:23;17.70;99.90
14172;DHT22;7165;52.388;4.928;2022-10-16T09:55:50;17.80;99.90
14172;DHT22;7165;52.388;4.928;2022-10-16T09:58:17;17.80;99.90
14172;DHT22;7165;52.388;4.928;2022-10-16T10:00:49;17.80;99.90
14172;DHT22;7165;52.388;4.928;2022-10-16T10:03:33;17.80;99.90
14172;DHT22;7165;52.388;4.928;2022-10-16T10:06:02;17.60;99.90
14172;DHT22;7165;52.388;4.928;2022-10-16T10:08:31;17.40;99.90
14172;DHT22;7165;52.388;4.928;2022-10-16T10:10:57;17.10;99.90
14172;DHT22;7165;52.388;4.928;2022-10-16T10:13:24;17.00;99.90
14172;DHT22;7165;52.388;4.928;2022-10-16T10:15:53;16.80;99.90
14172;DHT22;7165;52.388;4.928;2022-10-16T10:18:21;16.70;99.90
14172;DHT22;7165;52.388;4.928;2022-10-16T10:20:59;16.60;99.90
14172;DHT22;7165;52.388;4.928;2022-10-16T10:23:27;16.60;99.90
14172;DHT22;7165;52.388;4.928;2022-10-16T10:25:58;16.60;99.90
14172;DHT22;7165;52.388;4.928;2022-10-16T10:28:45;16.60;99.90
14172;DHT22;7165;52.388;4.928;2022-10-16T10:31:17;16.70;99.90
14172;DHT22;7165;52.388;4.928;2022-10-16T10:33:52;16.70;99.90
14172;DHT22;7165;52.388;4.928;2022-10-16T10:36:28;16.80;99.90
14172;DHT22;7165;52.388;4.928;2022-10-16T10:38:58;17.00;99.90
14172;DHT22;7165;52.388;4.928;2022-10-16T10:41:52;17.00;99.90
14172;DHT22;7165;52.388;4.928;2022-10-16T10:44:30;17.00;99.90
14172;DHT22;7165;52.388;4.928;2022-10-16T10:47:05;16.90;99.90
14172;DHT22;7165;52.388;4.928;2022-10-16T10:49:43;16.80;99.90
14172;DHT22;7165;52.388;4.928;2022-10-16T10:52:34;16.80;99.90
14172;DHT22;7165;52.388;4.928;2022-10-16T10:55:16;17.00;99.90
14172;DHT22;7165;52.388;4.928;2022-10-16T10:58:00;17.10;99.90
14172;DHT22;7165;52.388;4.928;2022-10-16T11:00:35;17.20;99.90
14172;DHT22;7165;52.388;4.928;2022-10-16T11:03:13;17.30;99.90
14172;DHT22;7165;52.388;4.928;2022-10-16T11:05:46;17.40;99.90
14172;DHT22;7165;52.388;4.928;2022-10-16T11:08:18;17.40;99.90
14172;DHT22;7165;52.388;4.928;2022-10-16T11:10:51;17.50;99.90
14172;DHT22;7165;52.388;4.928;2022-10-16T11:13:29;17.60;99.90
14172;DHT22;7165;52.388;4.928;2022-10-16T11:15:59;17.70;99.90
14172;DHT22;7165;52.388;4.928;2022-10-16T11:18:32;17.70;99.90
14172;DHT22;7165;52.388;4.928;2022-10-16T11:21:04;17.60;99.90
14172;DHT22;7165;52.388;4.928;2022-10-16T11:23:37;17.50;99.90
14172;DHT22;7165;52.388;4.928;2022-10-16T11:26:11;17.50;99.90
14172;DHT22;7165;52.388;4.928;2022-10-16T11:28:43;17.60;99.90
14172;DHT22;7165;52.388;4.928;2022-10-16T11:31:17;17.80;99.90
14172;DHT22;7165;52.388;4.928;2022-10-16T11:33:49;18.00;99.90
14172;DHT22;7165;52.388;4.928;2022-10-16T11:36:21;18.20;99.90
14172;DHT22;7165;52.388;4.928;2022-10-16T11:38:54;18.40;99.90
14172;DHT22;7165;52.388;4.928;2022-10-16T11:41:27;18.60;99.90
14172;DHT22;7165;52.388;4.928;2022-10-16T11:44:10;18.80;99.90
14172;DHT22;7165;52.388;4.928;2022-10-16T11:46:46;19.10;99.90
14172;DHT22;7165;52.388;4.928;2022-10-16T11:49:16;19.20;99.90
14172;DHT22;7165;52.388;4.928;2022-10-16T11:51:50;19.30;99.90
14172;DHT22;7165;52.388;4.928;2022-10-16T11:54:28;19.30;99.90
14172;DHT22;7165;52.388;4.928;2022-10-16T11:57:01;19.20;99.90
14172;DHT22;7165;52.388;4.928;2022-10-16T11:59:31;19.20;99.90
14172;DHT22;7165;52.388;4.928;2022-10-16T12:02:20;19.20;99.90
14172;DHT22;7165;52.388;4.928;2022-10-16T12:04:53;19.40;99.90
14172;DHT22;7165;52.388;4.928;2022-10-16T12:07:30;19.40;99.90
14172;DHT22;7165;52.388;4.928;2022-10-16T12:10:10;19.50;99.90
14172;DHT22;7165;52.388;4.928;2022-10-16T12:12:39;19.60;99.90
14172;DHT22;7165;52.388;4.928;2022-10-16T12:15:19;19.60;99.90
14172;DHT22;7165;52.388;4.928;2022-10-16T12:17:47;19.60;99.90
14172;DHT22;7165;52.388;4.928;2022-10-16T12:20:24;19.60;99.90
14172;DHT22;7165;52.388;4.928;2022-10-16T12:22:54;19.60;99.90
14172;DHT22;7165;52.388;4.928;2022-10-16T12:25:26;19.50;99.90
14172;DHT22;7165;52.388;4.928;2022-10-16T12:28:01;19.50;99.90
14172;DHT22;7165;52.388;4.928;2022-10-16T12:30:30;19.50;99.90
14172;DHT22;7165;52.388;4.928;2022-10-16T12:32:59;19.60;99.90
14172;DHT22;7165;52.388;4.928;2022-10-16T12:35:28;19.70;99.90
14172;DHT22;7165;52.388;4.928;2022-10-16T12:38:06;19.80;99.90
14172;DHT22;7165;52.388;4.928;2022-10-16T12:40:36;20.00;99.90
14172;DHT22;7165;52.388;4.928;2022-10-16T12:43:25;19.90;99.90
14172;DHT22;7165;52.388;4.928;2022-10-16T12:46:04;19.90;99.90
14172;DHT22;7165;52.388;4.928;2022-10-16T12:48:31;20.00;99.90
14172;DHT22;7165;52.388;4.928;2022-10-16T12:51:10;20.00;99.90
14172;DHT22;7165;52.388;4.928;2022-10-16T12:53:37;20.00;99.90
14172;DHT22;7165;52.388;4.928;2022-10-16T12:56:18;20.10;99.90
14172;DHT22;7165;52.388;4.928;2022-10-16T12:58:59;20.10;99.90
14172;DHT22;7165;52.388;4.928;2022-10-16T13:01:40;20.00;99.90
14172;DHT22;7165;52.388;4.928;2022-10-16T13:04:26;19.90;99.90
14172;DHT22;7165;52.388;4.928;2022-10-16T13:07:06;19.70;99.90
14172;DHT22;7165;52.388;4.928;2022-10-16T13:09:48;19.60;99.90
14172;DHT22;7165;52.388;4.928;2022-10-16T13:12:30;19.50;99.90
14172;DHT22;7165;52.388;4.928;2022-10-16T13:15:20;19.50;99.90
14172;DHT22;7165;52.388;4.928;2022-10-16T13:17:57;19.30;99.90
14172;DHT22;7165;52.388;4.928;2022-10-16T13:20:30;19.20;99.90
14172;DHT22;7165;52.388;4.928;2022-10-16T13:23:09;19.10;99.90
14172;DHT22;7165;52.388;4.928;2022-10-16T13:25:47;19.00;99.90
14172;DHT22;7165;52.388;4.928;2022-10-16T13:28:22;18.90;99.90
14172;DHT22;7165;52.388;4.928;2022-10-16T13:30:55;18.80;99.90
14172;DHT22;7165;52.388;4.928;2022-10-16T13:33:28;18.70;99.90
14172;DHT22;7165;52.388;4.928;2022-10-16T13:36:02;18.60;99.90
14172;DHT22;7165;52.388;4.928;2022-10-16T13:38:31;18.60;99.90
14172;DHT22;7165;52.388;4.928;2022-10-16T13:41:00;18.60;99.90
14172;DHT22;7165;52.388;4.928;2022-10-16T13:43:32;18.50;99.90
14172;DHT22;7165;52.388;4.928;2022-10-16T13:46:02;18.50;99.90
14172;DHT22;7165;52.388;4.928;2022-10-16T13:48:30;18.50;99.90
14172;DHT22;7165;52.388;4.928;2022-10-16T13:51:06;18.50;99.90
14172;DHT22;7165;52.388;4.928;2022-10-16T13:53:34;18.40;99.90
14172;DHT22;7165;52.388;4.928;2022-10-16T13:56:04;18.30;99.90
14172;DHT22;7165;52.388;4.928;2022-10-16T13:58:32;18.30;99.90
14172;DHT22;7165;52.388;4.928;2022-10-16T14:01:01;18.30;99.90
14172;DHT22;7165;52.388;4.928;2022-10-16T14:03:30;18.30;99.90
14172;DHT22;7165;52.388;4.928;2022-10-16T14:05:59;18.30;99.90
14172;DHT22;7165;52.388;4.928;2022-10-16T14:08:28;18.30;99.90
14172;DHT22;7165;52.388;4.928;2022-10-16T14:10:57;18.30;99.90
14172;DHT22;7165;52.388;4.928;2022-10-16T14:13:30;18.30;99.90
14172;DHT22;7165;52.388;4.928;2022-10-16T14:16:04;18.30;99.90
14172;DHT22;7165;52.388;4.928;2022-10-16T14:18:32;18.30;99.90
14172;DHT22;7165;52.388;4.928;2022-10-16T14:21:03;18.30;99.90
14172;DHT22;7165;52.388;4.928;2022-10-16T14:23:32;18.30;99.90
14172;DHT22;7165;52.388;4.928;2022-10-16T14:26:15;18.30;99.90
14172;DHT22;7165;52.388;4.928;2022-10-16T14:28:43;18.20;99.90
14172;DHT22;7165;52.388;4.928;2022-10-16T14:31:27;18.20;99.90
14172;DHT22;7165;52.388;4.928;2022-10-16T14:33:54;18.20;99.90
14172;DHT22;7165;52.388;4.928;2022-10-16T14:36:22;18.20;99.90
14172;DHT22;7165;52.388;4.928;2022-10-16T14:38:56;18.20;99.90
14172;DHT22;7165;52.388;4.928;2022-10-16T14:41:24;18.20;99.90
14172;DHT22;7165;52.388;4.928;2022-10-16T14:43:53;18.10;99.90
14172;DHT22;7165;52.388;4.928;2022-10-16T14:46:22;18.10;99.90
14172;DHT22;7165;52.388;4.928;2022-10-16T14:49:03;18.00;99.90
14172;DHT22;7165;52.388;4.928;2022-10-16T14:51:31;18.00;99.90
14172;DHT22;7165;52.388;4.928;2022-10-16T14:53:57;18.00;99.90
14172;DHT22;7165;52.388;4.928;2022-10-16T14:56:27;17.90;99.90
14172;DHT22;7165;52.388;4.928;2022-10-16T14:58:55;17.90;99.90
14172;DHT22;7165;52.388;4.928;2022-10-16T15:01:22;17.90;99.90
14172;DHT22;7165;52.388;4.928;2022-10-16T15:03:49;17.90;99.90
14172;DHT22;7165;52.388;4.928;2022-10-16T15:06:19;17.90;99.90
14172;DHT22;7165;52.388;4.928;2022-10-16T15:08:45;17.90;99.90
14172;DHT22;7165;52.388;4.928;2022-10-16T15:11:13;17.80;99.90
14172;DHT22;7165;52.388;4.928;2022-10-16T15:13:40;17.80;99.90
14172;DHT22;7165;52.388;4.928;2022-10-16T15:16:10;17.80;99.90
14172;DHT22;7165;52.388;4.928;2022-10-16T15:18:37;17.80;99.90
14172;DHT22;7165;52.388;4.928;2022-10-16T15:21:04;17.80;99.90
14172;DHT22;7165;52.388;4.928;2022-10-16T15:23:32;17.70;99.90
14172;DHT22;7165;52.388;4.928;2022-10-16T15:25:59;17.80;99.90
14172;DHT22;7165;52.388;4.928;2022-10-16T15:28:26;17.70;99.90
14172;DHT22;7165;52.388;4.928;2022-10-16T15:30:54;17.70;99.90
14172;DHT22;7165;52.388;4.928;2022-10-16T15:33:23;17.70;99.90
14172;DHT22;7165;52.388;4.928;2022-10-16T15:35:54;17.60;99.90
14172;DHT22;7165;52.388;4.928;2022-10-16T15:38:21;17.70;99.90
14172;DHT22;7165;52.388;4.928;2022-10-16T15:40:56;17.60;99.90
14172;DHT22;7165;52.388;4.928;2022-10-16T15:43:23;17.60;99.90
14172;DHT22;7165;52.388;4.928;2022-10-16T15:45:58;17.60;99.90
14172;DHT22;7165;52.388;4.928;2022-10-16T15:48:26;17.50;99.90
14172;DHT22;7165;52.388;4.928;2022-10-16T15:50:53;17.50;99.90
14172;DHT22;7165;52.388;4.928;2022-10-16T15:53:19;17.40;99.90
14172;DHT22;7165;52.388;4.928;2022-10-16T15:55:46;17.30;99.90
14172;DHT22;7165;52.388;4.928;2022-10-16T15:58:14;17.30;99.90
14172;DHT22;7165;52.388;4.928;2022-10-16T16:00:41;17.30;99.90
14172;DHT22;7165;52.388;4.928;2022-10-16T16:03:08;17.20;99.90